sensor_id;sensor_type;location;lat;lon;timestamp;P1;durP1;ratioP1;P2;durP2;ratioP2
8714;SDS011;4394;51.208;8.904;2023-03-14T00:01:58;1.10;;;1.00;;
8714;SDS011;4394;51.208;8.904;2023-03-14T00:04:46;1.60;;;0.80;;
8714;SDS011;4394;51.208;8.904;2023-03-14T00:07:35;2.80;;;1.10;;
8714;SDS011;4394;51.208;8.904;2023-03-14T00:10:24;2.90;;;1.03;;
8714;SDS011;4394;51.208;8.904;2023-03-14T00:13:12;2.07;;;1.00;;
8714;SDS011;4394;51.208;8.904;2023-03-14T00:16:04;2.93;;;1.00;;
8714;SDS011;4394;51.208;8.904;2023-03-14T00:18:53;1.83;;;1.07;;
8714;SDS011;4394;51.208;8.904;2023-03-14T00:21:41;1.63;;;0.93;;
8714;SDS011;4394;51.208;8.904;2023-03-14T00:24:30;1.70;;;0.70;;
8714;SDS011;4394;51.208;8.904;2023-03-14T00:27:18;1.43;;;0.80;;
8714;SDS011;4394;51.208;8.904;2023-03-14T00:30:06;3.47;;;0.93;;
8714;SDS011;4394;51.208;8.904;2023-03-14T00:32:55;2.87;;;0.73;;
8714;SDS011;4394;51.208;8.904;2023-03-14T00:35:43;1.93;;;1.00;;
8714;SDS011;4394;51.208;8.904;2023-03-14T00:38:31;1.47;;;0.90;;
8714;SDS011;4394;51.208;8.904;2023-03-14T00:41:22;3.83;;;1.40;;
8714;SDS011;4394;51.208;8.904;2023-03-14T00:44:10;1.67;;;1.00;;
8714;SDS011;4394;51.208;8.904;2023-03-14T00:46:58;0.80;;;0.63;;
8714;SDS011;4394;51.208;8.904;2023-03-14T00:49:46;3.57;;;1.00;;
8714;SDS011;4394;51.208;8.904;2023-03-14T00:52:34;1.60;;;1.00;;
8714;SDS011;4394;51.208;8.904;2023-03-14T00:55:22;1.03;;;0.70;;
8714;SDS011;4394;51.208;8.904;2023-03-14T00:58:11;1.23;;;0.70;;
8714;SDS011;4394;51.208;8.904;2023-03-14T01:01:04;2.33;;;0.90;;
8714;SDS011;4394;51.208;8.904;2023-03-14T01:03:53;1.70;;;0.97;;
8714;SDS011;4394;51.208;8.904;2023-03-14T01:06:42;1.73;;;0.73;;
8714;SDS011;4394;51.208;8.904;2023-03-14T01:09:30;1.80;;;0.60;;
8714;SDS011;4394;51.208;8.904;2023-03-14T01:12:17;2.17;;;0.70;;
8714;SDS011;4394;51.208;8.904;2023-03-14T01:15:07;1.30;;;0.80;;
8714;SDS011;4394;51.208;8.904;2023-03-14T01:17:55;1.63;;;0.90;;
8714;SDS011;4394;51.208;8.904;2023-03-14T01:20:43;1.00;;;0.70;;
8714;SDS011;4394;51.208;8.904;2023-03-14T01:23:31;2.13;;;0.83;;
8714;SDS011;4394;51.208;8.904;2023-03-14T01:26:20;1.10;;;0.70;;
8714;SDS011;4394;51.208;8.904;2023-03-14T01:29:09;0.70;;;0.60;;
8714;SDS011;4394;51.208;8.904;2023-03-14T01:31:58;1.83;;;0.63;;
8714;SDS011;4394;51.208;8.904;2023-03-14T01:34:46;1.90;;;0.77;;
8714;SDS011;4394;51.208;8.904;2023-03-14T01:37:34;1.87;;;1.10;;
8714;SDS011;4394;51.208;8.904;2023-03-14T01:40:22;1.40;;;0.90;;
8714;SDS011;4394;51.208;8.904;2023-03-14T01:43:14;1.67;;;0.97;;
8714;SDS011;4394;51.208;8.904;2023-03-14T01:49:15;1.17;;;0.97;;
8714;SDS011;4394;51.208;8.904;2023-03-14T01:52:10;4.47;;;1.03;;
8714;SDS011;4394;51.208;8.904;2023-03-14T01:55:02;2.33;;;1.00;;
8714;SDS011;4394;51.208;8.904;2023-03-14T01:57:52;1.13;;;1.00;;
8714;SDS011;4394;51.208;8.904;2023-03-14T02:00:44;1.17;;;0.80;;
8714;SDS011;4394;51.208;8.904;2023-03-14T02:03:32;3.27;;;1.40;;
8714;SDS011;4394;51.208;8.904;2023-03-14T02:06:28;3.70;;;0.90;;
8714;SDS011;4394;51.208;8.904;2023-03-14T02:09:20;2.20;;;0.90;;
8714;SDS011;4394;51.208;8.904;2023-03-14T02:12:08;2.40;;;1.03;;
8714;SDS011;4394;51.208;8.904;2023-03-14T02:14:58;5.37;;;1.83;;
8714;SDS011;4394;51.208;8.904;2023-03-14T02:17:46;2.00;;;1.20;;
8714;SDS011;4394;51.208;8.904;2023-03-14T02:20:35;2.43;;;1.50;;
8714;SDS011;4394;51.208;8.904;2023-03-14T02:23:35;2.63;;;1.13;;
8714;SDS011;4394;51.208;8.904;2023-03-14T02:26:28;3.47;;;1.17;;
8714;SDS011;4394;51.208;8.904;2023-03-14T02:29:22;2.00;;;1.30;;
8714;SDS011;4394;51.208;8.904;2023-03-14T02:32:12;3.77;;;1.27;;
8714;SDS011;4394;51.208;8.904;2023-03-14T02:35:03;3.53;;;1.63;;
8714;SDS011;4394;51.208;8.904;2023-03-14T02:37:55;3.03;;;1.47;;
8714;SDS011;4394;51.208;8.904;2023-03-14T02:40:47;3.00;;;1.50;;
8714;SDS011;4394;51.208;8.904;2023-03-14T02:43:35;2.53;;;1.50;;
8714;SDS011;4394;51.208;8.904;2023-03-14T02:46:24;3.17;;;1.50;;
8714;SDS011;4394;51.208;8.904;2023-03-14T02:49:13;2.30;;;1.27;;
8714;SDS011;4394;51.208;8.904;2023-03-14T02:52:02;3.03;;;1.40;;
8714;SDS011;4394;51.208;8.904;2023-03-14T02:54:50;3.53;;;1.60;;
8714;SDS011;4394;51.208;8.904;2023-03-14T02:57:38;2.73;;;1.53;;
8714;SDS011;4394;51.208;8.904;2023-03-14T03:00:26;3.27;;;1.37;;
8714;SDS011;4394;51.208;8.904;2023-03-14T03:03:15;4.03;;;1.83;;
8714;SDS011;4394;51.208;8.904;2023-03-14T03:06:03;3.83;;;1.73;;
8714;SDS011;4394;51.208;8.904;2023-03-14T03:08:52;2.87;;;1.67;;
8714;SDS011;4394;51.208;8.904;2023-03-14T03:11:40;3.97;;;1.60;;
8714;SDS011;4394;51.208;8.904;2023-03-14T03:14:27;3.50;;;1.73;;
8714;SDS011;4394;51.208;8.904;2023-03-14T03:17:15;2.87;;;1.57;;
8714;SDS011;4394;51.208;8.904;2023-03-14T03:20:05;4.90;;;1.87;;
8714;SDS011;4394;51.208;8.904;2023-03-14T03:22:55;4.40;;;1.77;;
8714;SDS011;4394;51.208;8.904;2023-03-14T03:25:47;4.17;;;2.03;;
8714;SDS011;4394;51.208;8.904;2023-03-14T03:28:36;2.90;;;2.00;;
8714;SDS011;4394;51.208;8.904;2023-03-14T03:31:24;3.50;;;1.50;;
8714;SDS011;4394;51.208;8.904;2023-03-14T03:34:12;4.20;;;1.67;;
8714;SDS011;4394;51.208;8.904;2023-03-14T03:37:02;3.17;;;1.50;;
8714;SDS011;4394;51.208;8.904;2023-03-14T03:39:52;5.00;;;1.40;;
8714;SDS011;4394;51.208;8.904;2023-03-14T03:42:41;3.20;;;1.40;;
8714;SDS011;4394;51.208;8.904;2023-03-14T03:45:29;1.70;;;1.40;;
8714;SDS011;4394;51.208;8.904;2023-03-14T03:48:17;2.87;;;1.50;;
8714;SDS011;4394;51.208;8.904;2023-03-14T03:51:05;3.00;;;1.40;;
8714;SDS011;4394;51.208;8.904;2023-03-14T03:53:55;2.20;;;1.30;;
8714;SDS011;4394;51.208;8.904;2023-03-14T03:56:43;3.63;;;1.53;;
8714;SDS011;4394;51.208;8.904;2023-03-14T03:59:31;2.20;;;1.40;;
8714;SDS011;4394;51.208;8.904;2023-03-14T04:02:19;2.50;;;1.40;;
8714;SDS011;4394;51.208;8.904;2023-03-14T04:05:07;3.57;;;1.40;;
8714;SDS011;4394;51.208;8.904;2023-03-14T04:07:55;2.43;;;1.40;;
8714;SDS011;4394;51.208;8.904;2023-03-14T04:10:45;3.83;;;1.37;;
8714;SDS011;4394;51.208;8.904;2023-03-14T04:13:32;1.20;;;1.10;;
8714;SDS011;4394;51.208;8.904;2023-03-14T04:16:22;2.20;;;1.20;;
8714;SDS011;4394;51.208;8.904;2023-03-14T04:19:10;3.10;;;1.20;;
8714;SDS011;4394;51.208;8.904;2023-03-14T04:21:58;4.70;;;2.00;;
8714;SDS011;4394;51.208;8.904;2023-03-14T04:24:46;3.30;;;1.70;;
8714;SDS011;4394;51.208;8.904;2023-03-14T04:27:35;4.70;;;1.57;;
8714;SDS011;4394;51.208;8.904;2023-03-14T04:30:23;2.63;;;1.77;;
8714;SDS011;4394;51.208;8.904;2023-03-14T04:33:11;3.70;;;1.77;;
8714;SDS011;4394;51.208;8.904;2023-03-14T04:36:03;4.10;;;1.70;;
8714;SDS011;4394;51.208;8.904;2023-03-14T04:38:52;4.73;;;1.90;;
8714;SDS011;4394;51.208;8.904;2023-03-14T04:41:40;3.37;;;2.23;;
8714;SDS011;4394;51.208;8.904;2023-03-14T04:44:29;5.57;;;1.83;;
8714;SDS011;4394;51.208;8.904;2023-03-14T04:47:17;4.03;;;1.90;;
8714;SDS011;4394;51.208;8.904;2023-03-14T04:50:05;5.27;;;1.60;;
8714;SDS011;4394;51.208;8.904;2023-03-14T04:52:53;4.60;;;1.67;;
8714;SDS011;4394;51.208;8.904;2023-03-14T04:55:41;5.63;;;1.50;;
8714;SDS011;4394;51.208;8.904;2023-03-14T04:58:29;7.17;;;2.20;;
8714;SDS011;4394;51.208;8.904;2023-03-14T05:01:18;5.83;;;1.80;;
8714;SDS011;4394;51.208;8.904;2023-03-14T05:04:06;2.77;;;1.50;;
8714;SDS011;4394;51.208;8.904;2023-03-14T05:06:54;4.80;;;1.73;;
8714;SDS011;4394;51.208;8.904;2023-03-14T05:09:42;4.20;;;1.80;;
8714;SDS011;4394;51.208;8.904;2023-03-14T05:12:30;6.63;;;1.57;;
8714;SDS011;4394;51.208;8.904;2023-03-14T05:15:18;7.17;;;2.20;;
8714;SDS011;4394;51.208;8.904;2023-03-14T05:18:07;4.13;;;1.57;;
8714;SDS011;4394;51.208;8.904;2023-03-14T05:20:55;3.90;;;1.60;;
8714;SDS011;4394;51.208;8.904;2023-03-14T05:23:43;6.80;;;2.23;;
8714;SDS011;4394;51.208;8.904;2023-03-14T05:26:31;2.77;;;1.60;;
8714;SDS011;4394;51.208;8.904;2023-03-14T05:29:18;4.60;;;2.27;;
8714;SDS011;4394;51.208;8.904;2023-03-14T05:32:06;4.97;;;2.03;;
8714;SDS011;4394;51.208;8.904;2023-03-14T05:34:55;5.57;;;1.53;;
8714;SDS011;4394;51.208;8.904;2023-03-14T05:37:45;4.37;;;1.50;;
8714;SDS011;4394;51.208;8.904;2023-03-14T05:40:33;6.03;;;1.70;;
8714;SDS011;4394;51.208;8.904;2023-03-14T05:43:21;3.90;;;1.70;;
8714;SDS011;4394;51.208;8.904;2023-03-14T05:46:09;6.37;;;1.60;;
8714;SDS011;4394;51.208;8.904;2023-03-14T05:48:57;3.33;;;1.57;;
8714;SDS011;4394;51.208;8.904;2023-03-14T05:51:46;3.30;;;1.73;;
8714;SDS011;4394;51.208;8.904;2023-03-14T05:54:34;5.73;;;1.70;;
8714;SDS011;4394;51.208;8.904;2023-03-14T05:57:22;4.23;;;1.67;;
8714;SDS011;4394;51.208;8.904;2023-03-14T06:00:10;3.43;;;1.57;;
8714;SDS011;4394;51.208;8.904;2023-03-14T06:02:59;5.80;;;1.50;;
8714;SDS011;4394;51.208;8.904;2023-03-14T06:05:49;4.63;;;1.60;;
8714;SDS011;4394;51.208;8.904;2023-03-14T06:08:38;4.03;;;1.60;;
8714;SDS011;4394;51.208;8.904;2023-03-14T06:11:26;5.93;;;1.30;;
8714;SDS011;4394;51.208;8.904;2023-03-14T06:14:14;5.70;;;1.40;;
8714;SDS011;4394;51.208;8.904;2023-03-14T06:17:02;4.10;;;1.30;;
8714;SDS011;4394;51.208;8.904;2023-03-14T06:19:50;3.20;;;1.30;;
8714;SDS011;4394;51.208;8.904;2023-03-14T06:22:38;4.03;;;1.30;;
8714;SDS011;4394;51.208;8.904;2023-03-14T06:25:27;4.70;;;1.33;;
8714;SDS011;4394;51.208;8.904;2023-03-14T06:28:15;2.83;;;1.40;;
8714;SDS011;4394;51.208;8.904;2023-03-14T06:31:03;2.40;;;1.00;;
8714;SDS011;4394;51.208;8.904;2023-03-14T06:33:52;3.33;;;1.10;;
8714;SDS011;4394;51.208;8.904;2023-03-14T06:36:42;5.00;;;1.07;;
8714;SDS011;4394;51.208;8.904;2023-03-14T06:39:30;2.87;;;1.00;;
8714;SDS011;4394;51.208;8.904;2023-03-14T06:42:19;3.23;;;1.00;;
8714;SDS011;4394;51.208;8.904;2023-03-14T06:45:07;2.80;;;0.97;;
8714;SDS011;4394;51.208;8.904;2023-03-14T06:47:56;2.63;;;1.03;;
8714;SDS011;4394;51.208;8.904;2023-03-14T06:50:44;4.27;;;1.10;;
8714;SDS011;4394;51.208;8.904;2023-03-14T06:53:31;3.63;;;1.03;;
8714;SDS011;4394;51.208;8.904;2023-03-14T06:56:19;3.23;;;1.50;;
8714;SDS011;4394;51.208;8.904;2023-03-14T06:59:08;5.43;;;1.23;;
8714;SDS011;4394;51.208;8.904;2023-03-14T07:01:56;4.43;;;1.40;;
8714;SDS011;4394;51.208;8.904;2023-03-14T07:04:44;1.60;;;1.00;;
8714;SDS011;4394;51.208;8.904;2023-03-14T07:07:32;2.70;;;0.97;;
8714;SDS011;4394;51.208;8.904;2023-03-14T07:10:20;3.50;;;1.27;;
8714;SDS011;4394;51.208;8.904;2023-03-14T07:13:08;2.47;;;1.10;;
8714;SDS011;4394;51.208;8.904;2023-03-14T07:15:57;2.37;;;1.10;;
8714;SDS011;4394;51.208;8.904;2023-03-14T07:18:45;3.03;;;1.30;;
8714;SDS011;4394;51.208;8.904;2023-03-14T07:21:33;2.10;;;1.00;;
8714;SDS011;4394;51.208;8.904;2023-03-14T07:24:21;1.50;;;1.13;;
8714;SDS011;4394;51.208;8.904;2023-03-14T07:27:09;2.43;;;1.10;;
8714;SDS011;4394;51.208;8.904;2023-03-14T07:29:57;3.23;;;0.80;;
8714;SDS011;4394;51.208;8.904;2023-03-14T07:32:46;5.27;;;1.00;;
8714;SDS011;4394;51.208;8.904;2023-03-14T07:35:34;2.07;;;0.97;;
8714;SDS011;4394;51.208;8.904;2023-03-14T07:38:22;1.20;;;0.80;;
8714;SDS011;4394;51.208;8.904;2023-03-14T07:41:10;0.93;;;0.70;;
8714;SDS011;4394;51.208;8.904;2023-03-14T07:43:58;1.57;;;0.90;;
8714;SDS011;4394;51.208;8.904;2023-03-14T07:46:46;1.10;;;0.70;;
8714;SDS011;4394;51.208;8.904;2023-03-14T07:49:35;2.03;;;0.90;;
8714;SDS011;4394;51.208;8.904;2023-03-14T07:52:23;2.30;;;0.60;;
8714;SDS011;4394;51.208;8.904;2023-03-14T07:55:11;1.33;;;0.40;;
8714;SDS011;4394;51.208;8.904;2023-03-14T07:57:59;0.70;;;0.57;;
8714;SDS011;4394;51.208;8.904;2023-03-14T08:00:48;1.43;;;0.70;;
8714;SDS011;4394;51.208;8.904;2023-03-14T08:03:35;0.27;;;0.27;;
8714;SDS011;4394;51.208;8.904;2023-03-14T08:06:25;1.67;;;0.40;;
8714;SDS011;4394;51.208;8.904;2023-03-14T08:09:13;3.13;;;0.63;;
8714;SDS011;4394;51.208;8.904;2023-03-14T08:12:01;0.57;;;0.50;;
8714;SDS011;4394;51.208;8.904;2023-03-14T08:14:49;0.83;;;0.27;;
8714;SDS011;4394;51.208;8.904;2023-03-14T08:17:37;2.27;;;0.30;;
8714;SDS011;4394;51.208;8.904;2023-03-14T08:20:25;1.13;;;0.30;;
8714;SDS011;4394;51.208;8.904;2023-03-14T08:23:16;1.33;;;0.23;;
8714;SDS011;4394;51.208;8.904;2023-03-14T08:26:04;0.50;;;0.20;;
8714;SDS011;4394;51.208;8.904;2023-03-14T08:28:52;0.50;;;0.20;;
8714;SDS011;4394;51.208;8.904;2023-03-14T08:31:40;1.43;;;0.30;;
8714;SDS011;4394;51.208;8.904;2023-03-14T08:34:28;0.70;;;0.30;;
8714;SDS011;4394;51.208;8.904;2023-03-14T08:37:16;2.63;;;0.20;;
8714;SDS011;4394;51.208;8.904;2023-03-14T08:40:14;0.60;;;0.20;;
8714;SDS011;4394;51.208;8.904;2023-03-14T08:43:03;0.20;;;0.13;;
8714;SDS011;4394;51.208;8.904;2023-03-14T08:45:51;1.00;;;0.27;;
8714;SDS011;4394;51.208;8.904;2023-03-14T08:48:38;0.90;;;0.13;;
8714;SDS011;4394;51.208;8.904;2023-03-14T08:51:26;0.23;;;0.20;;
8714;SDS011;4394;51.208;8.904;2023-03-14T08:54:14;0.40;;;0.27;;
8714;SDS011;4394;51.208;8.904;2023-03-14T08:57:04;0.63;;;0.30;;
8714;SDS011;4394;51.208;8.904;2023-03-14T08:59:51;0.33;;;0.20;;
8714;SDS011;4394;51.208;8.904;2023-03-14T09:02:39;0.50;;;0.30;;
8714;SDS011;4394;51.208;8.904;2023-03-14T09:05:27;0.57;;;0.43;;
8714;SDS011;4394;51.208;8.904;2023-03-14T09:08:15;1.37;;;0.57;;
8714;SDS011;4394;51.208;8.904;2023-03-14T09:11:05;0.40;;;0.40;;
8714;SDS011;4394;51.208;8.904;2023-03-14T09:13:55;1.13;;;0.70;;
8714;SDS011;4394;51.208;8.904;2023-03-14T09:16:43;1.10;;;0.80;;
8714;SDS011;4394;51.208;8.904;2023-03-14T09:19:31;1.20;;;0.73;;
8714;SDS011;4394;51.208;8.904;2023-03-14T09:22:19;1.30;;;0.83;;
8714;SDS011;4394;51.208;8.904;2023-03-14T09:25:07;0.90;;;0.80;;
8714;SDS011;4394;51.208;8.904;2023-03-14T09:27:56;1.57;;;0.90;;
8714;SDS011;4394;51.208;8.904;2023-03-14T09:30:45;1.50;;;0.80;;
8714;SDS011;4394;51.208;8.904;2023-03-14T09:33:33;2.43;;;0.60;;
8714;SDS011;4394;51.208;8.904;2023-03-14T09:36:21;3.20;;;0.77;;
8714;SDS011;4394;51.208;8.904;2023-03-14T09:39:09;2.03;;;0.67;;
8714;SDS011;4394;51.208;8.904;2023-03-14T09:41:57;1.77;;;0.50;;
8714;SDS011;4394;51.208;8.904;2023-03-14T09:44:52;1.63;;;0.50;;
8714;SDS011;4394;51.208;8.904;2023-03-14T09:47:44;0.30;;;0.30;;
8714;SDS011;4394;51.208;8.904;2023-03-14T09:50:44;2.00;;;0.53;;
8714;SDS011;4394;51.208;8.904;2023-03-14T09:53:36;1.70;;;0.60;;
8714;SDS011;4394;51.208;8.904;2023-03-14T09:56:27;1.23;;;0.47;;
8714;SDS011;4394;51.208;8.904;2023-03-14T09:59:19;1.70;;;0.40;;
8714;SDS011;4394;51.208;8.904;2023-03-14T10:02:15;1.33;;;0.47;;
8714;SDS011;4394;51.208;8.904;2023-03-14T10:05:07;0.97;;;0.30;;
8714;SDS011;4394;51.208;8.904;2023-03-14T10:08:01;0.93;;;0.30;;
8714;SDS011;4394;51.208;8.904;2023-03-14T10:10:49;3.00;;;0.37;;
8714;SDS011;4394;51.208;8.904;2023-03-14T10:13:39;0.37;;;0.30;;
8714;SDS011;4394;51.208;8.904;2023-03-14T10:16:37;0.60;;;0.43;;
8714;SDS011;4394;51.208;8.904;2023-03-14T10:19:29;0.73;;;0.30;;
8714;SDS011;4394;51.208;8.904;2023-03-14T10:22:18;0.60;;;0.20;;
8714;SDS011;4394;51.208;8.904;2023-03-14T10:25:10;0.60;;;0.37;;
8714;SDS011;4394;51.208;8.904;2023-03-14T10:28:22;0.50;;;0.27;;
8714;SDS011;4394;51.208;8.904;2023-03-14T10:31:12;0.57;;;0.40;;
8714;SDS011;4394;51.208;8.904;2023-03-14T10:34:00;0.70;;;0.30;;
8714;SDS011;4394;51.208;8.904;2023-03-14T10:36:54;0.63;;;0.30;;
8714;SDS011;4394;51.208;8.904;2023-03-14T10:39:46;2.13;;;0.77;;
8714;SDS011;4394;51.208;8.904;2023-03-14T10:42:38;1.17;;;0.37;;
8714;SDS011;4394;51.208;8.904;2023-03-14T10:45:31;0.37;;;0.30;;
8714;SDS011;4394;51.208;8.904;2023-03-14T10:48:23;1.13;;;0.30;;
8714;SDS011;4394;51.208;8.904;2023-03-14T10:51:18;0.97;;;0.30;;
8714;SDS011;4394;51.208;8.904;2023-03-14T10:54:12;0.43;;;0.40;;
8714;SDS011;4394;51.208;8.904;2023-03-14T10:57:07;0.20;;;0.20;;
8714;SDS011;4394;51.208;8.904;2023-03-14T10:59:55;0.50;;;0.27;;
8714;SDS011;4394;51.208;8.904;2023-03-14T11:02:47;0.90;;;0.30;;
8714;SDS011;4394;51.208;8.904;2023-03-14T11:05:46;0.63;;;0.23;;
8714;SDS011;4394;51.208;8.904;2023-03-14T11:08:41;0.30;;;0.20;;
8714;SDS011;4394;51.208;8.904;2023-03-14T11:11:34;1.13;;;0.37;;
8714;SDS011;4394;51.208;8.904;2023-03-14T11:14:25;0.90;;;0.30;;
8714;SDS011;4394;51.208;8.904;2023-03-14T11:17:19;0.57;;;0.30;;
8714;SDS011;4394;51.208;8.904;2023-03-14T11:20:17;0.73;;;0.30;;
8714;SDS011;4394;51.208;8.904;2023-03-14T11:23:16;1.63;;;0.20;;
8714;SDS011;4394;51.208;8.904;2023-03-14T11:26:11;1.50;;;0.23;;
8714;SDS011;4394;51.208;8.904;2023-03-14T11:29:15;0.20;;;0.10;;
8714;SDS011;4394;51.208;8.904;2023-03-14T11:32:13;0.40;;;0.20;;
8714;SDS011;4394;51.208;8.904;2023-03-14T11:35:11;0.87;;;0.20;;
8714;SDS011;4394;51.208;8.904;2023-03-14T11:38:07;0.63;;;0.20;;
8714;SDS011;4394;51.208;8.904;2023-03-14T11:40:59;1.77;;;0.50;;
8714;SDS011;4394;51.208;8.904;2023-03-14T11:43:48;0.50;;;0.20;;
8714;SDS011;4394;51.208;8.904;2023-03-14T11:46:41;0.47;;;0.17;;
8714;SDS011;4394;51.208;8.904;2023-03-14T11:49:34;0.20;;;0.20;;
8714;SDS011;4394;51.208;8.904;2023-03-14T11:52:27;0.10;;;0.10;;
8714;SDS011;4394;51.208;8.904;2023-03-14T11:55:19;0.20;;;0.10;;
8714;SDS011;4394;51.208;8.904;2023-03-14T11:58:13;0.20;;;0.10;;
8714;SDS011;4394;51.208;8.904;2023-03-14T12:01:06;2.20;;;0.20;;
8714;SDS011;4394;51.208;8.904;2023-03-14T12:04:00;0.00;;;0.00;;
8714;SDS011;4394;51.208;8.904;2023-03-14T12:06:58;0.30;;;0.10;;
8714;SDS011;4394;51.208;8.904;2023-03-14T12:09:50;0.00;;;0.00;;
8714;SDS011;4394;51.208;8.904;2023-03-14T12:12:39;0.20;;;0.10;;
8714;SDS011;4394;51.208;8.904;2023-03-14T12:15:27;0.20;;;0.20;;
8714;SDS011;4394;51.208;8.904;2023-03-14T12:18:18;0.23;;;0.23;;
8714;SDS011;4394;51.208;8.904;2023-03-14T12:21:09;0.00;;;0.00;;
8714;SDS011;4394;51.208;8.904;2023-03-14T12:24:00;0.10;;;0.10;;
8714;SDS011;4394;51.208;8.904;2023-03-14T12:26:50;0.00;;;0.00;;
8714;SDS011;4394;51.208;8.904;2023-03-14T12:29:56;0.20;;;0.07;;
8714;SDS011;4394;51.208;8.904;2023-03-14T12:39:39;0.00;;;0.00;;
8714;SDS011;4394;51.208;8.904;2023-03-14T12:42:37;0.20;;;0.10;;
8714;SDS011;4394;51.208;8.904;2023-03-14T12:45:31;0.10;;;0.03;;
8714;SDS011;4394;51.208;8.904;2023-03-14T12:48:20;0.00;;;0.00;;
8714;SDS011;4394;51.208;8.904;2023-03-14T12:51:12;0.23;;;0.00;;
8714;SDS011;4394;51.208;8.904;2023-03-14T12:54:11;0.07;;;0.07;;
8714;SDS011;4394;51.208;8.904;2023-03-14T12:57:16;0.20;;;0.10;;
8714;SDS011;4394;51.208;8.904;2023-03-14T13:00:16;0.10;;;0.10;;
8714;SDS011;4394;51.208;8.904;2023-03-14T13:03:13;0.33;;;0.20;;
8714;SDS011;4394;51.208;8.904;2023-03-14T13:06:10;0.20;;;0.20;;
8714;SDS011;4394;51.208;8.904;2023-03-14T13:09:01;0.23;;;0.23;;
8714;SDS011;4394;51.208;8.904;2023-03-14T13:12:25;0.40;;;0.30;;
8714;SDS011;4394;51.208;8.904;2023-03-14T13:15:23;0.30;;;0.20;;
8714;SDS011;4394;51.208;8.904;2023-03-14T13:18:15;0.20;;;0.20;;
8714;SDS011;4394;51.208;8.904;2023-03-14T13:21:05;0.30;;;0.30;;
8714;SDS011;4394;51.208;8.904;2023-03-14T13:23:58;3.03;;;0.50;;
8714;SDS011;4394;51.208;8.904;2023-03-14T13:26:48;0.43;;;0.30;;
8714;SDS011;4394;51.208;8.904;2023-03-14T13:29:37;0.20;;;0.20;;
8714;SDS011;4394;51.208;8.904;2023-03-14T13:32:26;1.03;;;0.30;;
8714;SDS011;4394;51.208;8.904;2023-03-14T13:35:16;2.23;;;0.53;;
8714;SDS011;4394;51.208;8.904;2023-03-14T13:38:15;2.53;;;0.70;;
8714;SDS011;4394;51.208;8.904;2023-03-14T13:41:06;1.43;;;0.53;;
8714;SDS011;4394;51.208;8.904;2023-03-14T13:43:57;4.27;;;0.87;;
8714;SDS011;4394;51.208;8.904;2023-03-14T13:46:52;3.20;;;0.70;;
8714;SDS011;4394;51.208;8.904;2023-03-14T13:49:45;2.87;;;0.70;;
8714;SDS011;4394;51.208;8.904;2023-03-14T13:52:35;3.03;;;0.83;;
8714;SDS011;4394;51.208;8.904;2023-03-14T13:55:24;2.10;;;0.70;;
8714;SDS011;4394;51.208;8.904;2023-03-14T13:58:25;6.27;;;1.13;;
8714;SDS011;4394;51.208;8.904;2023-03-14T14:01:15;1.57;;;0.80;;
8714;SDS011;4394;51.208;8.904;2023-03-14T14:04:07;2.90;;;1.07;;
8714;SDS011;4394;51.208;8.904;2023-03-14T14:07:05;4.23;;;1.50;;
8714;SDS011;4394;51.208;8.904;2023-03-14T14:09:56;3.83;;;1.40;;
8714;SDS011;4394;51.208;8.904;2023-03-14T14:12:48;3.43;;;1.07;;
8714;SDS011;4394;51.208;8.904;2023-03-14T14:15:41;1.83;;;0.90;;
8714;SDS011;4394;51.208;8.904;2023-03-14T14:18:31;3.87;;;1.23;;
8714;SDS011;4394;51.208;8.904;2023-03-14T14:21:21;4.17;;;1.40;;
8714;SDS011;4394;51.208;8.904;2023-03-14T14:24:10;3.20;;;1.17;;
8714;SDS011;4394;51.208;8.904;2023-03-14T14:27:09;2.50;;;1.00;;
8714;SDS011;4394;51.208;8.904;2023-03-14T14:30:03;4.27;;;1.03;;
8714;SDS011;4394;51.208;8.904;2023-03-14T14:32:52;3.53;;;1.00;;
8714;SDS011;4394;51.208;8.904;2023-03-14T14:35:57;2.67;;;0.90;;
8714;SDS011;4394;51.208;8.904;2023-03-14T14:38:56;3.33;;;1.17;;
8714;SDS011;4394;51.208;8.904;2023-03-14T14:41:47;3.87;;;1.00;;
8714;SDS011;4394;51.208;8.904;2023-03-14T14:44:36;3.80;;;1.27;;
8714;SDS011;4394;51.208;8.904;2023-03-14T14:47:25;3.70;;;1.00;;
8714;SDS011;4394;51.208;8.904;2023-03-14T14:50:21;2.80;;;1.00;;
8714;SDS011;4394;51.208;8.904;2023-03-14T14:53:20;6.03;;;1.00;;
8714;SDS011;4394;51.208;8.904;2023-03-14T14:56:16;3.00;;;0.97;;
8714;SDS011;4394;51.208;8.904;2023-03-14T14:59:18;3.90;;;1.40;;
8714;SDS011;4394;51.208;8.904;2023-03-14T15:02:09;2.67;;;1.17;;
8714;SDS011;4394;51.208;8.904;2023-03-14T15:05:14;1.03;;;0.80;;
8714;SDS011;4394;51.208;8.904;2023-03-14T15:08:07;3.70;;;1.20;;
8714;SDS011;4394;51.208;8.904;2023-03-14T15:10:56;3.47;;;1.40;;
8714;SDS011;4394;51.208;8.904;2023-03-14T15:13:46;3.50;;;1.60;;
8714;SDS011;4394;51.208;8.904;2023-03-14T15:16:34;8.70;;;1.63;;
8714;SDS011;4394;51.208;8.904;2023-03-14T15:19:23;5.93;;;2.10;;
8714;SDS011;4394;51.208;8.904;2023-03-14T15:22:13;6.27;;;2.10;;
8714;SDS011;4394;51.208;8.904;2023-03-14T15:25:01;5.47;;;2.10;;
8714;SDS011;4394;51.208;8.904;2023-03-14T15:27:49;7.10;;;2.03;;
8714;SDS011;4394;51.208;8.904;2023-03-14T15:30:38;7.20;;;2.40;;
8714;SDS011;4394;51.208;8.904;2023-03-14T15:33:27;11.73;;;2.13;;
8714;SDS011;4394;51.208;8.904;2023-03-14T15:36:18;6.63;;;1.93;;
8714;SDS011;4394;51.208;8.904;2023-03-14T15:39:09;8.10;;;2.00;;
8714;SDS011;4394;51.208;8.904;2023-03-14T15:41:58;10.13;;;2.50;;
8714;SDS011;4394;51.208;8.904;2023-03-14T15:44:45;4.27;;;2.20;;
8714;SDS011;4394;51.208;8.904;2023-03-14T15:47:35;6.27;;;2.20;;
8714;SDS011;4394;51.208;8.904;2023-03-14T15:50:23;9.10;;;2.70;;
8714;SDS011;4394;51.208;8.904;2023-03-14T15:53:12;9.50;;;2.13;;
8714;SDS011;4394;51.208;8.904;2023-03-14T15:56:00;9.50;;;2.37;;
8714;SDS011;4394;51.208;8.904;2023-03-14T15:58:48;6.97;;;2.57;;
8714;SDS011;4394;51.208;8.904;2023-03-14T16:01:37;9.43;;;2.50;;
8714;SDS011;4394;51.208;8.904;2023-03-14T16:04:26;11.87;;;2.60;;
8714;SDS011;4394;51.208;8.904;2023-03-14T16:07:15;9.33;;;2.40;;
8714;SDS011;4394;51.208;8.904;2023-03-14T16:10:04;12.20;;;2.30;;
8714;SDS011;4394;51.208;8.904;2023-03-14T16:12:52;14.33;;;2.83;;
8714;SDS011;4394;51.208;8.904;2023-03-14T16:15:40;5.07;;;1.93;;
8714;SDS011;4394;51.208;8.904;2023-03-14T16:18:29;6.97;;;2.13;;
8714;SDS011;4394;51.208;8.904;2023-03-14T16:21:19;7.70;;;1.73;;
8714;SDS011;4394;51.208;8.904;2023-03-14T16:24:08;10.47;;;2.10;;
8714;SDS011;4394;51.208;8.904;2023-03-14T16:26:58;12.00;;;2.40;;
8714;SDS011;4394;51.208;8.904;2023-03-14T16:29:46;9.97;;;2.70;;
8714;SDS011;4394;51.208;8.904;2023-03-14T16:32:34;7.40;;;2.13;;
8714;SDS011;4394;51.208;8.904;2023-03-14T16:35:25;7.03;;;2.27;;
8714;SDS011;4394;51.208;8.904;2023-03-14T16:38:15;7.80;;;2.17;;
8714;SDS011;4394;51.208;8.904;2023-03-14T16:41:04;6.00;;;2.17;;
8714;SDS011;4394;51.208;8.904;2023-03-14T16:43:53;7.63;;;2.40;;
8714;SDS011;4394;51.208;8.904;2023-03-14T16:46:42;9.50;;;2.20;;
8714;SDS011;4394;51.208;8.904;2023-03-14T16:49:30;13.70;;;2.80;;
8714;SDS011;4394;51.208;8.904;2023-03-14T16:52:18;9.47;;;2.10;;
8714;SDS011;4394;51.208;8.904;2023-03-14T16:55:07;11.13;;;2.67;;
8714;SDS011;4394;51.208;8.904;2023-03-14T16:57:55;13.23;;;2.43;;
8714;SDS011;4394;51.208;8.904;2023-03-14T17:00:43;13.10;;;2.20;;
8714;SDS011;4394;51.208;8.904;2023-03-14T17:03:31;9.43;;;2.47;;
8714;SDS011;4394;51.208;8.904;2023-03-14T17:06:20;10.93;;;2.40;;
8714;SDS011;4394;51.208;8.904;2023-03-14T17:09:09;11.70;;;2.63;;
8714;SDS011;4394;51.208;8.904;2023-03-14T17:11:59;9.40;;;2.30;;
8714;SDS011;4394;51.208;8.904;2023-03-14T17:14:47;9.53;;;2.43;;
8714;SDS011;4394;51.208;8.904;2023-03-14T17:17:35;10.50;;;2.73;;
8714;SDS011;4394;51.208;8.904;2023-03-14T17:20:22;13.33;;;2.50;;
8714;SDS011;4394;51.208;8.904;2023-03-14T17:23:10;10.30;;;1.90;;
8714;SDS011;4394;51.208;8.904;2023-03-14T17:25:58;5.50;;;2.03;;
8714;SDS011;4394;51.208;8.904;2023-03-14T17:28:47;5.83;;;1.93;;
8714;SDS011;4394;51.208;8.904;2023-03-14T17:31:35;9.90;;;2.13;;
8714;SDS011;4394;51.208;8.904;2023-03-14T17:34:23;11.60;;;2.23;;
8714;SDS011;4394;51.208;8.904;2023-03-14T17:37:11;8.23;;;2.10;;
8714;SDS011;4394;51.208;8.904;2023-03-14T17:39:59;6.43;;;2.00;;
8714;SDS011;4394;51.208;8.904;2023-03-14T17:42:49;9.30;;;2.03;;
8714;SDS011;4394;51.208;8.904;2023-03-14T17:45:39;10.63;;;1.77;;
8714;SDS011;4394;51.208;8.904;2023-03-14T17:48:28;6.00;;;1.73;;